createdAt,value
2017-07-05T00:00:10.996Z,0
2017-07-05T00:01:11.325Z,0
2017-07-05T00:02:11.018Z,0
2017-07-05T00:03:11.375Z,0
2017-07-05T00:04:25.999Z,0
2017-07-05T00:05:26.012Z,0
2017-07-05T00:06:11.439Z,0
2017-07-05T00:07:11.466Z,0
2017-07-05T00:08:26.122Z,0
2017-07-05T00:09:11.525Z,0
2017-07-05T00:10:11.522Z,0
2017-07-05T00:11:11.572Z,0
2017-07-05T00:12:11.571Z,0
2017-07-05T00:13:10.986Z,0
2017-07-05T00:14:11.620Z,0
2017-07-05T00:15:11.008Z,0
2017-07-05T00:16:11.366Z,0
2017-07-05T00:17:11.773Z,0
2017-07-05T00:18:11.415Z,0
2017-07-05T00:20:11.774Z,0
2017-07-05T00:21:11.790Z,0
2017-07-05T00:22:10.876Z,0
2017-07-05T00:23:26.427Z,0
2017-07-05T00:24:11.565Z,0
2017-07-05T00:25:11.951Z,0
2017-07-05T00:26:11.619Z,0
2017-07-05T00:27:12.221Z,0
2017-07-05T00:28:11.947Z,0
2017-07-05T00:29:11.982Z,0
2017-07-05T00:30:12.023Z,0
2017-07-05T00:31:12.048Z,0
2017-07-05T00:32:11.777Z,0
2017-07-05T00:33:12.079Z,0
2017-07-05T00:35:12.135Z,0
2017-07-05T00:36:12.169Z,0
2017-07-05T00:37:12.185Z,0
2017-07-05T00:38:11.878Z,0
2017-07-05T00:39:11.906Z,0
2017-07-05T00:40:12.263Z,0
2017-07-05T00:41:12.276Z,0
2017-07-05T00:42:12.342Z,0
2017-07-05T00:43:12.000Z,0
2017-07-05T00:44:12.328Z,0
2017-07-05T00:45:26.342Z,0
2017-07-05T00:46:12.061Z,0
2017-07-05T00:47:12.431Z,0
2017-07-05T00:48:12.114Z,0
2017-07-05T00:49:12.485Z,0
2017-07-05T00:50:12.476Z,0
2017-07-05T00:51:11.870Z,0
2017-07-05T00:52:12.538Z,0
2017-07-05T00:53:12.298Z,0
2017-07-05T00:54:12.591Z,0
2017-07-05T00:55:26.875Z,0
2017-07-05T00:57:12.637Z,0
2017-07-05T00:58:12.690Z,0
2017-07-05T00:59:12.700Z,0
2017-07-05T01:00:12.753Z,0
2017-07-05T01:01:12.757Z,0
2017-07-05T01:02:12.788Z,0
2017-07-05T01:03:27.409Z,0
2017-07-05T01:04:27.435Z,0
2017-07-05T01:05:12.836Z,0
2017-07-05T01:06:12.881Z,0
2017-07-05T01:07:27.485Z,0
2017-07-05T01:08:12.900Z,0
2017-07-05T01:09:12.620Z,0
2017-07-05T01:10:27.558Z,0
2017-07-05T01:11:27.594Z,0
2017-07-05T01:12:13.024Z,0
2017-07-05T01:13:13.038Z,0
2017-07-05T01:14:12.737Z,0
2017-07-05T01:15:12.777Z,0
2017-07-05T01:16:13.095Z,0
2017-07-05T01:17:27.733Z,0
2017-07-05T01:18:13.142Z,0
2017-07-05T01:19:13.190Z,0
2017-07-05T01:20:13.180Z,0
2017-07-05T01:21:27.834Z,0
2017-07-05T01:22:12.628Z,0
2017-07-05T01:23:12.320Z,0
2017-07-05T01:24:27.889Z,0
2017-07-05T01:25:27.591Z,0
2017-07-05T01:26:13.047Z,0
2017-07-05T01:27:27.637Z,0
2017-07-05T01:28:13.463Z,0
2017-07-05T01:29:13.421Z,0
2017-07-05T01:30:12.815Z,0
2017-07-05T01:31:12.524Z,0
2017-07-05T01:32:13.181Z,0
2017-07-05T01:33:12.889Z,0
2017-07-05T01:34:12.906Z,0
2017-07-05T01:35:13.560Z,0
2017-07-05T01:36:12.964Z,0
2017-07-05T01:37:13.289Z,0
2017-07-05T01:38:13.661Z,0
2017-07-05T01:39:13.653Z,0
2017-07-05T01:40:13.678Z,0
2017-07-05T01:41:13.384Z,0
2017-07-05T01:42:13.082Z,0
2017-07-05T01:43:28.354Z,0
2017-07-05T01:45:13.817Z,0
2017-07-05T01:46:13.197Z,0
2017-07-05T01:47:13.536Z,0
2017-07-05T01:48:28.474Z,0
2017-07-05T01:49:13.888Z,0
2017-07-05T01:50:13.926Z,0
2017-07-05T01:51:13.937Z,0
2017-07-05T01:52:13.970Z,0
2017-07-05T01:53:13.662Z,0
2017-07-05T01:54:13.707Z,0
2017-07-05T01:55:14.034Z,0
2017-07-05T01:56:14.115Z,0
2017-07-05T01:57:28.358Z,0
2017-07-05T01:58:28.710Z,0
2017-07-05T01:59:13.483Z,0
2017-07-05T02:00:14.157Z,0
2017-07-05T02:01:13.864Z,0
2017-07-05T02:02:28.806Z,0
2017-07-05T02:03:14.252Z,0
2017-07-05T02:04:14.231Z,0
2017-07-05T02:05:14.282Z,0
2017-07-05T02:06:14.297Z,0
2017-07-05T02:07:14.016Z,0
2017-07-05T02:08:14.335Z,0
2017-07-05T02:09:14.067Z,0
2017-07-05T02:10:14.392Z,0
2017-07-05T02:11:14.109Z,0
2017-07-05T02:12:14.112Z,0
2017-07-05T02:13:14.463Z,0
2017-07-05T02:14:14.483Z,0
2017-07-05T02:15:14.203Z,4
2017-07-05T02:16:28.831Z,4
2017-07-05T02:17:29.153Z,4
2017-07-05T02:18:14.580Z,0
2017-07-05T02:19:14.290Z,4
2017-07-05T02:20:13.671Z,4
2017-07-05T02:21:29.267Z,4
2017-07-05T02:22:14.038Z,8
2017-07-05T02:23:14.427Z,4
2017-07-05T02:24:14.789Z,8
2017-07-05T02:25:14.419Z,8
2017-07-05T02:26:14.470Z,8
2017-07-05T02:27:14.797Z,12
2017-07-05T02:29:14.841Z,12
2017-07-05T02:30:29.457Z,12
2017-07-05T02:31:14.905Z,16
2017-07-05T02:32:14.590Z,16
2017-07-05T02:33:14.949Z,20
2017-07-05T02:34:14.999Z,24
2017-07-05T02:35:14.998Z,24
2017-07-05T02:36:14.992Z,24
2017-07-05T02:37:14.086Z,24
2017-07-05T02:38:14.714Z,28
2017-07-05T02:39:14.460Z,28
2017-07-05T02:40:14.800Z,36
2017-07-05T02:41:14.483Z,36
2017-07-05T02:42:29.440Z,44
2017-07-05T02:43:15.167Z,48
2017-07-05T02:44:29.796Z,52
2017-07-05T02:45:14.895Z,60
2017-07-05T02:46:29.856Z,68
2017-07-05T02:47:29.876Z,72
2017-07-05T02:48:14.966Z,76
2017-07-05T02:49:15.053Z,76
2017-07-05T02:50:15.022Z,76
2017-07-05T02:51:15.348Z,84
2017-07-05T02:52:15.396Z,88
2017-07-05T02:53:15.075Z,92
2017-07-05T02:54:14.797Z,100
2017-07-05T02:55:15.447Z,108
2017-07-05T02:56:29.768Z,112
2017-07-05T02:57:15.201Z,120
2017-07-05T02:58:15.525Z,128
2017-07-05T02:59:15.229Z,136
2017-07-05T03:00:15.548Z,148
2017-07-05T03:01:15.303Z,160
2017-07-05T03:02:29.897Z,168
2017-07-05T03:03:15.664Z,172
2017-07-05T03:05:30.305Z,200
2017-07-05T03:06:15.407Z,208
2017-07-05T03:07:15.119Z,212
2017-07-05T03:08:15.119Z,216
2017-07-05T03:09:15.164Z,224
2017-07-05T03:10:15.805Z,228
2017-07-05T03:11:30.108Z,244
2017-07-05T03:12:15.542Z,256
2017-07-05T03:13:15.890Z,276
2017-07-05T03:14:15.917Z,292
2017-07-05T03:15:30.199Z,312
2017-07-05T03:16:15.950Z,324
2017-07-05T03:17:30.573Z,348
2017-07-05T03:18:30.602Z,368
2017-07-05T03:19:16.023Z,380
2017-07-05T03:20:15.732Z,388
2017-07-05T03:21:30.651Z,408
2017-07-05T03:22:30.065Z,440
2017-07-05T03:23:15.791Z,464
2017-07-05T03:24:15.830Z,488
2017-07-05T03:25:30.767Z,528
2017-07-05T03:26:16.170Z,568
2017-07-05T03:27:15.900Z,604
2017-07-05T03:28:16.209Z,616
2017-07-05T03:29:15.945Z,644
2017-07-05T03:30:15.952Z,708
2017-07-05T03:31:16.318Z,752
2017-07-05T03:32:15.687Z,752
2017-07-05T03:34:16.360Z,672
2017-07-05T03:35:16.398Z,644
2017-07-05T03:36:16.423Z,632
2017-07-05T03:37:16.430Z,624
2017-07-05T03:38:16.485Z,628
2017-07-05T03:40:30.488Z,672
2017-07-05T03:41:16.585Z,708
2017-07-05T03:42:16.554Z,764
2017-07-05T03:43:30.556Z,804
2017-07-05T03:44:16.605Z,820
2017-07-05T03:45:16.631Z,836
2017-07-05T03:46:16.341Z,868
2017-07-05T03:47:16.681Z,904
2017-07-05T03:49:16.756Z,928
2017-07-05T03:50:16.757Z,924
2017-07-05T03:51:16.779Z,916
2017-07-05T03:52:16.776Z,904
2017-07-05T03:53:16.827Z,892
2017-07-05T03:54:16.841Z,908
2017-07-05T03:55:31.482Z,924
2017-07-05T03:56:16.572Z,940
2017-07-05T03:57:31.516Z,1032
2017-07-05T03:58:16.943Z,1140
2017-07-05T03:59:16.953Z,1336
2017-07-05T04:00:16.993Z,1532
2017-07-05T04:01:16.692Z,1632
2017-07-05T04:02:17.049Z,1496
2017-07-05T04:03:17.058Z,1312
2017-07-05T04:04:16.770Z,1216
2017-07-05T04:05:31.691Z,1180
2017-07-05T04:06:17.127Z,1184
2017-07-05T04:07:17.168Z,1212
2017-07-05T04:08:31.767Z,1200
2017-07-05T04:09:31.813Z,1216
2017-07-05T04:10:31.824Z,1244
2017-07-05T04:11:16.929Z,1272
2017-07-05T04:12:17.276Z,1320
2017-07-05T04:13:17.309Z,1340
2017-07-05T04:14:17.316Z,1400
2017-07-05T04:15:17.030Z,1484
2017-07-05T04:16:17.033Z,1488
2017-07-05T04:17:17.393Z,1504
2017-07-05T04:18:17.399Z,1532
2017-07-05T04:19:17.131Z,1548
2017-07-05T04:21:32.077Z,1424
2017-07-05T04:22:17.180Z,1364
2017-07-05T04:23:17.189Z,1264
2017-07-05T04:24:17.251Z,1144
2017-07-05T04:25:17.579Z,1048
2017-07-05T04:26:17.661Z,1036
2017-07-05T04:27:17.640Z,1016
2017-07-05T04:28:17.666Z,1048
2017-07-05T04:29:31.953Z,1088
2017-07-05T04:30:17.690Z,1144
2017-07-05T04:31:17.733Z,1256
2017-07-05T04:32:32.345Z,1416
2017-07-05T04:33:32.381Z,1476
2017-07-05T04:35:17.499Z,1412
2017-07-05T04:36:32.139Z,1304
2017-07-05T04:37:32.446Z,1256
2017-07-05T04:38:16.937Z,1252
2017-07-05T04:40:17.931Z,1192
2017-07-05T04:41:17.951Z,1172
2017-07-05T04:42:17.998Z,1216
2017-07-05T04:43:17.371Z,1264
2017-07-05T04:44:17.719Z,1332
2017-07-05T04:45:18.055Z,1384
2017-07-05T04:46:18.092Z,1464
2017-07-05T04:47:18.146Z,1616
2017-07-05T04:48:17.815Z,1816
2017-07-05T04:49:18.138Z,1980
2017-07-05T04:50:18.191Z,2156
2017-07-05T04:51:32.825Z,2292
2017-07-05T04:52:17.909Z,2292
2017-07-05T04:53:32.848Z,2040
2017-07-05T04:54:17.947Z,1788
2017-07-05T04:57:18.348Z,1300
2017-07-05T04:58:32.974Z,1284
2017-07-05T05:00:33.013Z,1368
2017-07-05T05:01:18.443Z,1384
2017-07-05T05:02:18.156Z,1440
2017-07-05T05:03:18.497Z,1584
2017-07-05T05:04:33.101Z,1868
2017-07-05T05:05:18.546Z,2020
2017-07-05T05:06:33.166Z,2180
2017-07-05T05:07:18.573Z,2204
2017-07-05T05:09:33.235Z,2180
2017-07-05T05:10:33.266Z,2172
2017-07-05T05:11:18.360Z,2152
2017-07-05T05:12:18.074Z,2020
2017-07-05T05:13:33.325Z,1868
2017-07-05T05:14:33.034Z,1832
2017-07-05T05:15:18.766Z,1844
2017-07-05T05:16:18.499Z,1932
2017-07-05T05:17:18.516Z,2080
2017-07-05T05:18:18.850Z,2112
2017-07-05T05:19:18.547Z,2060
2017-07-05T05:20:33.491Z,1908
2017-07-05T05:21:18.927Z,1804
2017-07-05T05:22:18.931Z,1624
2017-07-05T05:23:18.657Z,1456
2017-07-05T05:24:19.003Z,1340
2017-07-05T05:25:19.018Z,1316
2017-07-05T05:26:19.029Z,1316
2017-07-05T05:27:33.652Z,1336
2017-07-05T05:28:33.692Z,1348
2017-07-05T05:29:19.088Z,1364
2017-07-05T05:31:19.209Z,1568
2017-07-05T05:32:18.868Z,1648
2017-07-05T05:33:19.185Z,1752
2017-07-05T05:34:19.201Z,1808
2017-07-05T05:35:19.245Z,1828
2017-07-05T05:36:19.280Z,1836
2017-07-05T05:37:19.281Z,1892
2017-07-05T05:38:33.926Z,2056
2017-07-05T05:39:19.015Z,2144
2017-07-05T05:40:33.971Z,2124
2017-07-05T05:41:34.005Z,1924
2017-07-05T05:42:19.415Z,1768
2017-07-05T05:43:34.092Z,1640
2017-07-05T05:44:19.455Z,1616
2017-07-05T05:45:19.497Z,1640
2017-07-05T05:46:19.504Z,1704
2017-07-05T05:47:19.539Z,1716
2017-07-05T05:48:34.151Z,1740
2017-07-05T05:49:19.592Z,1780
2017-07-05T05:50:33.880Z,1876
2017-07-05T05:52:19.645Z,2028
2017-07-05T05:53:19.357Z,2104
2017-07-05T05:54:19.702Z,2112
2017-07-05T05:55:19.741Z,2044
2017-07-05T05:56:48.626Z,2056
2017-07-05T05:58:19.783Z,2032
2017-07-05T05:59:19.811Z,2056
2017-07-05T06:00:19.900Z,2060
2017-07-05T06:01:19.241Z,1992
2017-07-05T06:02:19.892Z,1944
2017-07-05T06:03:34.515Z,1844
2017-07-05T06:04:19.947Z,1720
2017-07-05T06:05:20.023Z,1560
2017-07-05T06:06:34.574Z,1408
2017-07-05T06:07:20.011Z,1352
2017-07-05T06:08:20.022Z,1312
2017-07-05T06:09:20.045Z,1288
2017-07-05T06:10:20.079Z,1272
2017-07-05T06:11:20.120Z,1280
2017-07-05T06:12:34.725Z,1272
2017-07-05T06:13:20.143Z,1228
2017-07-05T06:14:20.195Z,1168
2017-07-05T06:15:19.564Z,1156
2017-07-05T06:16:19.279Z,1196
2017-07-05T06:17:20.236Z,1252
2017-07-05T06:18:19.955Z,1272
2017-07-05T06:19:34.591Z,1224
2017-07-05T06:20:19.999Z,1176
2017-07-05T06:21:20.020Z,1132
2017-07-05T06:22:34.320Z,1156
2017-07-05T06:23:19.446Z,1240
2017-07-05T06:24:20.402Z,1460
2017-07-05T06:25:19.805Z,1700
2017-07-05T06:26:19.820Z,1832
2017-07-05T06:27:20.480Z,1848
2017-07-05T06:28:35.097Z,1844
2017-07-05T06:29:19.886Z,1776
2017-07-05T06:30:35.152Z,1504
2017-07-05T06:31:35.150Z,1356
2017-07-05T06:32:35.211Z,1284
2017-07-05T06:33:20.299Z,1244
2017-07-05T06:34:20.337Z,1224
2017-07-05T06:35:20.675Z,1244
2017-07-05T06:36:20.726Z,1252
2017-07-05T06:37:20.391Z,1220
2017-07-05T06:38:20.737Z,1184
2017-07-05T06:39:20.736Z,1200
2017-07-05T06:40:20.805Z,1288
2017-07-05T06:41:20.494Z,1408
2017-07-05T06:42:20.524Z,1656
2017-07-05T06:43:35.457Z,2288
2017-07-05T06:44:20.890Z,2740
2017-07-05T06:45:20.897Z,3268
2017-07-05T06:46:20.625Z,3368
2017-07-05T06:47:20.954Z,2816
2017-07-05T06:48:20.986Z,2124
2017-07-05T06:49:20.989Z,1632
2017-07-05T06:50:21.038Z,1420
2017-07-05T06:51:21.021Z,1420
2017-07-05T06:52:20.759Z,1576
2017-07-05T06:53:21.080Z,1956
2017-07-05T06:54:20.818Z,2452
2017-07-05T06:55:20.495Z,2744
2017-07-05T06:56:21.177Z,2828
2017-07-05T06:57:21.187Z,2796
2017-07-05T06:58:21.209Z,2736
2017-07-05T06:59:20.583Z,2736
2017-07-05T07:00:20.995Z,2660
2017-07-05T07:02:20.991Z,2508
2017-07-05T07:03:35.606Z,2360
2017-07-05T07:04:21.361Z,2384
2017-07-05T07:05:21.413Z,2500
2017-07-05T07:06:21.393Z,2496
2017-07-05T07:07:21.415Z,2272
2017-07-05T07:08:21.127Z,2060
2017-07-05T07:09:35.752Z,2108
2017-07-05T07:10:21.466Z,2296
2017-07-05T07:11:21.526Z,2720
2017-07-05T07:12:35.804Z,3188
2017-07-05T07:13:21.551Z,3284
2017-07-05T07:14:21.561Z,3220
2017-07-05T07:15:35.946Z,3132
2017-07-05T07:16:21.638Z,3220
2017-07-05T07:17:21.330Z,3420
2017-07-05T07:18:21.354Z,3528
2017-07-05T07:19:21.691Z,3572
2017-07-05T07:21:21.784Z,3776
2017-07-05T07:22:20.824Z,3732
2017-07-05T07:23:21.209Z,3676
2017-07-05T07:24:21.506Z,3740
2017-07-05T07:25:21.813Z,3900
2017-07-05T07:26:21.549Z,3852
2017-07-05T07:27:21.879Z,3680
2017-07-05T07:28:21.912Z,3468
2017-07-05T07:29:21.964Z,3168
2017-07-05T07:30:21.653Z,2988
2017-07-05T07:31:36.570Z,2996
2017-07-05T07:32:21.704Z,2992
2017-07-05T07:33:22.042Z,2940
2017-07-05T07:34:21.738Z,2860
2017-07-05T07:35:21.429Z,2800
2017-07-05T07:36:21.808Z,2748
2017-07-05T07:37:21.820Z,2648
2017-07-05T07:38:21.817Z,2580
2017-07-05T07:39:21.871Z,2556
2017-07-05T07:40:22.227Z,2524
2017-07-05T07:41:22.219Z,2528
2017-07-05T07:42:22.218Z,2588
2017-07-05T07:45:22.288Z,2704
2017-07-05T07:46:22.024Z,2952
2017-07-05T07:47:36.942Z,3224
2017-07-05T07:48:22.073Z,3300
2017-07-05T07:49:22.399Z,3352
2017-07-05T07:50:22.103Z,3428
2017-07-05T07:51:21.870Z,3568
2017-07-05T07:52:37.070Z,3504
2017-07-05T07:53:37.075Z,3464
2017-07-05T07:54:21.892Z,3540
2017-07-05T07:55:22.211Z,3592
2017-07-05T07:56:22.579Z,3512
2017-07-05T07:57:22.584Z,3360
2017-07-05T07:58:21.668Z,3240
2017-07-05T07:59:22.311Z,3188
2017-07-05T08:01:22.044Z,3336
2017-07-05T08:02:22.706Z,3452
2017-07-05T08:03:37.341Z,3396
2017-07-05T08:04:37.028Z,3256
2017-07-05T08:05:22.464Z,3192
2017-07-05T08:08:37.464Z,3272
2017-07-05T08:09:37.453Z,3416
2017-07-05T08:11:22.927Z,3752
2017-07-05T08:12:22.944Z,4072
2017-07-05T08:13:22.638Z,4444
2017-07-05T08:14:22.348Z,4928
2017-07-05T08:15:23.089Z,5420
2017-07-05T08:16:22.076Z,5772
2017-07-05T08:17:22.442Z,6024
2017-07-05T08:18:37.825Z,6232
2017-07-05T08:19:23.117Z,6576
2017-07-05T08:20:22.806Z,7408
2017-07-05T08:21:22.854Z,8072
2017-07-05T08:22:22.556Z,8952
2017-07-05T08:23:22.249Z,9652
2017-07-05T08:24:37.806Z,9736
2017-07-05T08:25:22.943Z,9520
2017-07-05T08:26:22.951Z,9096
2017-07-05T08:27:23.324Z,8872
2017-07-05T08:28:23.363Z,9132
2017-07-05T08:29:23.145Z,9456
2017-07-05T08:30:37.339Z,10120
2017-07-05T08:31:23.376Z,10964
2017-07-05T08:32:22.788Z,12544
2017-07-05T08:33:23.453Z,14148
2017-07-05T08:34:23.475Z,15800
2017-07-05T08:35:23.525Z,16004
2017-07-05T08:36:22.884Z,15412
2017-07-05T08:37:22.893Z,14172
2017-07-05T08:38:23.581Z,14488
2017-07-05T08:39:22.946Z,14840
2017-07-05T08:40:23.613Z,15548
2017-07-05T08:41:38.242Z,15424
2017-07-05T08:42:23.661Z,18528
2017-07-05T08:43:23.363Z,19776
2017-07-05T08:44:23.505Z,17760
2017-07-05T08:45:23.732Z,18048
2017-07-05T08:46:23.771Z,23456
2017-07-05T08:48:37.831Z,17376
2017-07-05T08:49:23.513Z,17888
2017-07-05T08:50:53.071Z,17536
2017-07-05T08:51:23.903Z,17016
2017-07-05T08:52:24.152Z,16608
2017-07-05T08:53:23.946Z,15836
2017-07-05T08:54:23.963Z,15184
2017-07-05T08:55:23.774Z,15128
2017-07-05T08:56:23.696Z,14824
2017-07-05T08:57:23.736Z,15040
2017-07-05T08:58:23.753Z,15460
2017-07-05T08:59:24.092Z,16244
2017-07-05T09:00:23.951Z,16792
2017-07-05T09:01:23.832Z,18464
2017-07-05T09:02:23.868Z,20160
2017-07-05T09:03:38.845Z,20448
2017-07-05T09:04:38.830Z,20160
2017-07-05T09:05:24.249Z,19104
2017-07-05T09:07:24.299Z,17376
2017-07-05T09:08:24.310Z,18688
2017-07-05T09:09:24.365Z,18688
2017-07-05T09:10:24.524Z,19008
2017-07-05T09:11:24.405Z,19680
2017-07-05T09:12:24.121Z,20256
2017-07-05T09:13:24.479Z,19360
2017-07-05T09:14:24.469Z,19680
2017-07-05T09:15:38.798Z,18944
2017-07-05T09:16:24.215Z,18432
2017-07-05T09:17:24.295Z,17088
2017-07-05T09:18:24.627Z,16456
2017-07-05T09:19:39.214Z,16444
2017-07-05T09:20:24.365Z,16428
2017-07-05T09:21:24.669Z,16292
2017-07-05T09:22:39.283Z,15148
2017-07-05T09:23:24.423Z,14232
2017-07-05T09:24:24.467Z,13376
2017-07-05T09:25:24.454Z,12688
2017-07-05T09:26:24.805Z,12168
2017-07-05T09:28:24.866Z,11972
2017-07-05T09:29:24.565Z,11936
2017-07-05T09:30:24.966Z,12008
2017-07-05T09:31:24.613Z,12400
2017-07-05T09:32:24.336Z,12908
2017-07-05T09:33:24.342Z,13220
2017-07-05T09:34:24.727Z,13276
2017-07-05T09:36:24.759Z,13756
2017-07-05T09:37:24.924Z,15072
2017-07-05T09:38:39.719Z,17728
2017-07-05T09:39:25.156Z,22496
2017-07-05T09:40:39.864Z,18720
2017-07-05T09:41:24.254Z,17920
2017-07-05T09:42:39.811Z,18272
2017-07-05T09:43:24.987Z,19168
2017-07-05T09:44:24.653Z,18944
2017-07-05T09:45:24.681Z,19680
2017-07-05T09:46:25.363Z,18816
2017-07-05T09:47:25.466Z,18304
2017-07-05T09:48:25.056Z,18432
2017-07-05T09:49:40.025Z,17472
2017-07-05T09:50:39.716Z,16596
2017-07-05T09:52:25.189Z,18240
2017-07-05T09:53:40.125Z,19104
2017-07-05T09:54:25.246Z,20768
2017-07-05T09:55:25.566Z,18336
2017-07-05T09:56:24.981Z,15992
2017-07-05T09:57:25.616Z,15984
2017-07-05T09:58:25.341Z,14500
2017-07-05T09:59:25.696Z,13680
2017-07-05T10:01:40.337Z,9812
2017-07-05T10:02:25.439Z,9392
2017-07-05T10:03:25.591Z,10340
2017-07-05T10:04:25.820Z,13012
2017-07-05T10:05:25.863Z,13612
2017-07-05T10:07:25.598Z,14132
2017-07-05T10:08:25.929Z,15992
2017-07-05T10:09:26.023Z,13728
2017-07-05T10:10:25.973Z,13204
2017-07-05T10:12:26.351Z,11392
2017-07-05T10:13:26.118Z,11464
2017-07-05T10:15:26.023Z,14748
2017-07-05T10:17:40.764Z,11156
2017-07-05T10:18:26.230Z,10660
2017-07-05T10:19:26.225Z,10720
2017-07-05T10:20:26.253Z,10564
2017-07-05T10:21:26.259Z,10496
2017-07-05T10:22:26.036Z,10248
2017-07-05T10:23:25.711Z,9932
2017-07-05T10:24:25.727Z,10384
2017-07-05T10:25:41.015Z,10172
2017-07-05T10:26:26.445Z,9984
2017-07-05T10:27:26.136Z,10232
2017-07-05T10:28:26.219Z,16864
2017-07-05T10:29:25.871Z,17536
2017-07-05T10:30:26.550Z,11648
2017-07-05T10:31:26.335Z,10928
2017-07-05T10:32:26.275Z,9248
2017-07-05T10:33:41.213Z,7476
2017-07-05T10:34:26.647Z,7260
2017-07-05T10:35:26.548Z,8044
2017-07-05T10:36:26.702Z,9240
2017-07-05T10:37:26.732Z,14248
2017-07-05T10:38:26.749Z,12168
2017-07-05T10:39:41.369Z,12496
2017-07-05T10:40:26.496Z,11704
2017-07-05T10:41:41.625Z,10960
2017-07-05T10:42:26.236Z,11460
2017-07-05T10:43:26.568Z,11912
2017-07-05T10:44:26.598Z,11012
2017-07-05T10:45:41.230Z,9152
2017-07-05T10:46:26.330Z,8284
2017-07-05T10:47:26.680Z,7776
2017-07-05T10:48:26.750Z,7236
2017-07-05T10:50:26.453Z,7824
2017-07-05T10:51:26.462Z,9160
2017-07-05T10:52:27.176Z,11172
2017-07-05T10:53:27.151Z,11468
2017-07-05T10:54:26.938Z,11964
2017-07-05T10:55:41.804Z,12180
2017-07-05T10:56:26.936Z,12500
2017-07-05T10:57:41.879Z,14312
2017-07-05T10:58:27.278Z,17632
2017-07-05T10:59:26.691Z,13520
2017-07-05T11:00:27.030Z,12960
2017-07-05T11:01:27.069Z,14808
2017-07-05T11:02:26.753Z,14132
2017-07-05T11:03:27.161Z,16576
2017-07-05T11:04:27.513Z,15476
2017-07-05T11:05:27.161Z,15412
2017-07-05T11:06:27.249Z,14892
2017-07-05T11:07:27.225Z,9176
2017-07-05T11:08:27.251Z,9548
2017-07-05T11:09:27.632Z,11836
2017-07-05T11:10:27.089Z,10876
2017-07-05T11:11:27.667Z,12296
2017-07-05T11:12:27.603Z,12024
2017-07-05T11:13:42.315Z,9512
2017-07-05T11:15:42.043Z,8384
2017-07-05T11:16:27.466Z,8224
2017-07-05T11:17:27.903Z,8144
2017-07-05T11:18:27.855Z,8156
2017-07-05T11:19:42.482Z,8336
2017-07-05T11:20:28.070Z,8212
2017-07-05T11:21:27.910Z,7700
2017-07-05T11:22:27.980Z,7632
2017-07-05T11:23:42.778Z,8480
2017-07-05T11:24:27.987Z,8928
2017-07-05T11:25:28.033Z,9472
2017-07-05T11:26:27.483Z,9844
2017-07-05T11:27:27.782Z,10256
2017-07-05T11:28:42.701Z,11724
2017-07-05T11:29:42.798Z,10388
2017-07-05T11:30:28.212Z,14332
2017-07-05T11:31:27.886Z,14136
2017-07-05T11:32:27.592Z,13860
2017-07-05T11:33:28.035Z,10776
2017-07-05T11:34:28.271Z,13208
2017-07-05T11:35:28.002Z,12664
2017-07-05T11:36:28.313Z,12768
2017-07-05T11:37:28.368Z,13348
2017-07-05T11:38:28.377Z,13900
2017-07-05T11:39:28.424Z,10832
2017-07-05T11:40:28.515Z,11452
2017-07-05T11:41:28.471Z,10912
2017-07-05T11:43:43.130Z,14272
2017-07-05T11:44:28.304Z,15328
2017-07-05T11:45:43.170Z,15172
2017-07-05T11:47:42.963Z,10748
2017-07-05T11:48:28.639Z,10500
2017-07-05T11:49:28.701Z,10712
2017-07-05T11:51:28.442Z,9568
2017-07-05T11:52:28.456Z,8620
2017-07-05T11:54:28.192Z,7532
2017-07-05T11:55:28.529Z,7728
2017-07-05T11:56:28.577Z,7824
2017-07-05T11:57:28.895Z,7424
2017-07-05T11:58:28.665Z,6768
2017-07-05T11:59:28.710Z,6888
2017-07-05T12:00:42.947Z,8680
2017-07-05T12:01:29.026Z,10280
2017-07-05T12:02:29.054Z,9348
2017-07-05T12:03:28.524Z,11224
2017-07-05T12:04:29.096Z,11312
2017-07-05T12:05:29.121Z,11364
2017-07-05T12:06:28.849Z,11732
2017-07-05T12:07:29.160Z,12136
2017-07-05T12:08:28.640Z,12024
2017-07-05T12:09:29.342Z,12864
2017-07-05T12:10:43.549Z,12604
2017-07-05T12:11:28.950Z,11352
2017-07-05T12:12:43.586Z,10916
2017-07-05T12:13:29.339Z,9900
2017-07-05T12:14:43.339Z,9616
2017-07-05T12:15:29.194Z,9104
2017-07-05T12:16:44.022Z,8344
2017-07-05T12:17:29.212Z,8060
2017-07-05T12:18:29.580Z,7324
2017-07-05T12:19:29.243Z,6856
2017-07-05T12:20:43.828Z,6656
2017-07-05T12:21:28.923Z,6568
2017-07-05T12:22:29.336Z,6496
2017-07-05T12:23:43.891Z,7036
2017-07-05T12:24:29.348Z,7528
2017-07-05T12:25:29.797Z,7804
2017-07-05T12:26:29.399Z,7520
2017-07-05T12:27:29.724Z,7188
2017-07-05T12:28:29.468Z,6916
2017-07-05T12:29:29.451Z,6896
2017-07-05T12:30:29.502Z,6928
2017-07-05T12:31:29.567Z,7128
2017-07-05T12:32:44.474Z,7636
2017-07-05T12:33:44.181Z,7872
2017-07-05T12:34:29.597Z,7964
2017-07-05T12:35:29.760Z,7960
2017-07-05T12:36:29.699Z,7712
2017-07-05T12:37:30.002Z,7580
2017-07-05T12:39:29.735Z,7708
2017-07-05T12:40:29.745Z,7816
2017-07-05T12:41:29.802Z,7872
2017-07-05T12:42:29.810Z,7908
2017-07-05T12:43:30.169Z,7944
2017-07-05T12:44:30.185Z,8004
2017-07-05T12:45:30.274Z,8216
2017-07-05T12:46:30.242Z,8576
2017-07-05T12:47:29.943Z,9344
2017-07-05T12:48:45.342Z,10968
2017-07-05T12:49:30.302Z,10708
2017-07-05T12:50:30.344Z,9128
2017-07-05T12:51:30.051Z,9424
2017-07-05T12:52:44.675Z,9184
2017-07-05T12:54:30.136Z,8948
2017-07-05T12:55:30.641Z,8908
2017-07-05T12:56:30.505Z,8872
2017-07-05T12:57:45.130Z,8884
2017-07-05T12:58:30.555Z,8640
2017-07-05T12:59:30.663Z,8428
2017-07-05T13:00:45.312Z,8316
2017-07-05T13:01:30.642Z,8304
2017-07-05T13:02:30.368Z,8144
2017-07-05T13:03:45.303Z,8216
2017-07-05T13:04:30.502Z,8484
2017-07-05T13:05:30.754Z,9648
2017-07-05T13:06:45.358Z,8976
2017-07-05T13:07:30.178Z,9120
2017-07-05T13:08:30.509Z,9144
2017-07-05T13:09:30.548Z,8864
2017-07-05T13:10:31.284Z,8496
2017-07-05T13:11:30.913Z,7984
2017-07-05T13:12:30.663Z,8008
2017-07-05T13:13:45.299Z,8772
2017-07-05T13:14:31.006Z,9192
2017-07-05T13:15:31.010Z,9528
2017-07-05T13:16:31.053Z,9588
2017-07-05T13:17:31.061Z,9512
2017-07-05T13:18:30.789Z,9544
2017-07-05T13:19:31.122Z,9220
2017-07-05T13:20:30.903Z,9052
2017-07-05T13:21:31.201Z,8840
2017-07-05T13:22:30.872Z,8644
2017-07-05T13:23:31.227Z,8488
2017-07-05T13:24:31.262Z,8296
2017-07-05T13:25:31.299Z,8236
2017-07-05T13:26:31.323Z,8412
2017-07-05T13:27:31.476Z,8612
2017-07-05T13:28:31.061Z,8860
2017-07-05T13:29:45.997Z,9000
2017-07-05T13:30:46.128Z,9736
2017-07-05T13:31:31.456Z,10976
2017-07-05T13:32:30.872Z,11824
2017-07-05T13:33:31.620Z,9772
2017-07-05T13:34:31.543Z,9112
2017-07-05T13:35:45.853Z,8312
2017-07-05T13:36:31.610Z,8252
2017-07-05T13:37:46.219Z,8848
2017-07-05T13:38:31.320Z,9188
2017-07-05T13:39:31.404Z,8492
2017-07-05T13:40:31.482Z,8280
2017-07-05T13:41:31.720Z,8160
2017-07-05T13:42:31.757Z,8252
2017-07-05T13:43:46.054Z,8140
2017-07-05T13:44:30.866Z,8336
2017-07-05T13:46:31.556Z,8588
2017-07-05T13:47:46.167Z,8752
2017-07-05T13:48:31.928Z,10168
2017-07-05T13:49:31.619Z,11120
2017-07-05T13:50:31.974Z,10828
2017-07-05T13:51:46.637Z,10400
2017-07-05T13:52:46.626Z,9140
2017-07-05T13:54:32.068Z,10704
2017-07-05T13:55:32.216Z,7792
2017-07-05T13:56:31.810Z,7708
2017-07-05T13:58:46.890Z,8396
2017-07-05T13:59:32.281Z,8776
2017-07-05T14:00:31.913Z,10936
2017-07-05T14:01:31.960Z,10888
2017-07-05T14:02:32.076Z,10564
2017-07-05T14:03:32.018Z,10320
2017-07-05T14:04:32.344Z,7656
2017-07-05T14:05:32.809Z,7356
2017-07-05T14:06:46.687Z,7148
2017-07-05T14:07:47.031Z,7280
2017-07-05T14:08:46.894Z,7204
2017-07-05T14:09:47.069Z,7132
2017-07-05T14:10:32.203Z,7424
2017-07-05T14:11:32.526Z,7108
2017-07-05T14:12:32.761Z,6956
2017-07-05T14:13:32.591Z,6864
2017-07-05T14:14:32.638Z,10040
2017-07-05T14:15:32.636Z,9084
2017-07-05T14:16:32.352Z,10224
2017-07-05T14:17:32.708Z,10132
2017-07-05T14:18:33.098Z,8852